Wichita, KS (67206)

9:17 AM CDT on September 29, 2016 (GMT -0500)
Remington Place Estates | | Change Station

Elev 1398 ft 37.72 °N, 97.22 °W | Updated 1 second ago

Clear
Clear
55.3 °F
Feels Like 55.3 °F
N
3.0
Wind Variable Wind from North

Today
High -- | Low -- °F
--% Chance of Precip.
Yesterday
High -- | Low -- °F
Precip. -- in
Pressure 30.40 in
Visibility 10.0 miles
Clouds Clear
Dew Point 49 °F
Humidity 80%
Rainfall 0.00 in
Snow Depth Not available.
7:23 AM 7:14 PM
Waning Crescent, 2% visible
METAR KAAO 291354Z AUTO 01007KT 10SM CLR 12/09 A3039 RMK AO2 SLP293 T01170094 PWINO $
Pressure 30.40 in
Visibility 10.0 miles
Clouds Clear
Dew Point 49 °F
Humidity 80%
Rainfall 0.00 in
Snow Depth Not available.
7:23 AM 7:14 PM
Waning Crescent, 2% visible
METAR KAAO 291354Z AUTO 01007KT 10SM CLR 12/09 A3039 RMK AO2 SLP293 T01170094 PWINO $

10-Day Weather Forecast

Almanac

Astronomy

Sep. 29, 2016 Rise Set
Actual Time
Civil Twilight
Nautical Twilight
Astronomical Twilight
Moon
Length of Visible Light
Length of Day
Tomorrow will be .
, % of the Moon is Illuminated

Today's Extremes

State Highs State Lows

Community

WunderPhotos

Upload Photos

1,942,479 photos uploaded!

WunderBlog® & News

Nearby

Air Quality

  Air Quality AQ Index Pollutant
Not available.

Snow Depth

Station Depth Elevation

Earthquake Activity

City Distance Mag. Time & Date
Minimum magnitude displayed is 2.5.

Coastal Water Temperatures

Place Temperature

Stations

Nearby Weather Stations

Station Location Temp. Windchill Dew Point Humidity Wind Precip. Elev Updated Type
                   

Watches & Warnings

There are currently no watches in effect.